Time;durP1;ratioP1;P1;durP2;ratioP2;P2;SDS_P1;SDS_P2;PMS_P1;PMS_P2;Temp;Humidity;BMP_temperature;BMP_pressure;BME280_temperature;BME280_humidity;BME280_pressure;Samples;Min_cycle;Max_cycle;Signal;HPM_P1;HPM_P2
2023/06/15 00:04:40;;;;;;;17.08;9.73;;;;;;;;;;10503110;28;20142;-75
2023/06/15 00:09:40;;;;;;;17.67;10.35;;;;;;;;;;10502421;28;20184;-75
2023/06/15 00:14:41;;;;;;;18.60;10.95;;;;;;;;;;10502875;28;20083;-75
2023/06/15 00:19:41;;;;;;;19.45;11.40;;;;;;;;;;10502423;28;20368;-73
2023/06/15 00:24:42;;;;;;;20.53;11.47;;;;;;;;;;10501748;28;20028;-74
2023/06/15 00:29:42;;;;;;;20.33;10.90;;;;;;;;;;10501973;28;20263;-73
2023/06/15 00:34:42;;;;;;;21.73;11.90;;;;;;;;;;10502353;28;20024;-76
2023/06/15 00:39:43;;;;;;;25.17;12.63;;;;;;;;;;10501281;28;20310;-73
2023/06/15 00:44:43;;;;;;;27.92;14.00;;;;;;;;;;10501692;28;20020;-74
2023/06/15 00:49:44;;;;;;;25.52;13.02;;;;;;;;;;10502087;28;20024;-73
2023/06/15 00:54:45;;;;;;;31.42;13.38;;;;;;;;;;10503560;28;20087;-73
2023/06/15 00:59:45;;;;;;;23.70;12.65;;;;;;;;;;10483175;28;20237;-75
2023/06/15 01:04:45;;;;;;;28.48;13.05;;;;;;;;;;10481876;28;20013;-74
2023/06/15 01:09:47;;;;;;;25.77;12.23;;;;;;;;;;10500797;28;20024;-74
2023/06/15 01:14:47;;;;;;;23.85;11.88;;;;;;;;;;10501076;28;20078;-73
2023/06/15 01:19:54;;;;;;;25.27;12.35;;;;;;;;;;10500742;28;20266;-76
2023/06/15 01:25:04;;;;;;;23.67;12.88;;;;;;;;;;10482370;28;20028;-74
2023/06/15 01:30:05;;;;;;;26.35;12.02;;;;;;;;;;10500159;28;20073;-74
2023/06/15 01:35:06;;;;;;;24.48;12.63;;;;;;;;;;10505631;28;20029;-74
2023/06/15 01:40:07;;;;;;;24.03;11.97;;;;;;;;;;10499714;28;20016;-74
2023/06/15 01:45:08;;;;;;;21.92;12.15;;;;;;;;;;10499380;28;20024;-74
2023/06/15 01:50:10;;;;;;;26.35;12.85;;;;;;;;;;10497930;28;20020;-74
2023/06/15 01:55:10;;;;;;;24.98;12.02;;;;;;;;;;10501223;28;20050;-74
2023/06/15 02:00:11;;;;;;;25.10;11.82;;;;;;;;;;10486830;28;20223;-75
2023/06/15 02:05:11;;;;;;;25.50;13.10;;;;;;;;;;10457185;28;20048;-75
2023/06/15 02:15:32;;;;;;;25.33;14.20;;;;;;;;;;10448038;28;20053;-77
2023/06/15 02:20:33;;;;;;;24.52;12.95;;;;;;;;;;10464717;28;20024;-75
2023/06/15 02:25:34;;;;;;;22.35;13.02;;;;;;;;;;10479241;28;20025;-77
2023/06/15 02:30:34;;;;;;;29.13;14.02;;;;;;;;;;10416620;28;20567;-75
2023/06/15 02:35:35;;;;;;;26.23;13.80;;;;;;;;;;10451028;28;20009;-75
2023/06/15 02:40:35;;;;;;;27.23;13.23;;;;;;;;;;10433269;28;20031;-73
2023/06/15 02:45:36;;;;;;;24.70;12.60;;;;;;;;;;10434513;28;20119;-77
2023/06/15 02:50:37;;;;;;;21.60;11.05;;;;;;;;;;10430509;28;20563;-78
2023/06/15 02:55:38;;;;;;;21.00;11.20;;;;;;;;;;10430175;28;20541;-80
2023/06/15 03:00:40;;;;;;;15.77;9.55;;;;;;;;;;10438404;28;20031;-79
2023/06/15 03:05:40;;;;;;;25.02;8.55;;;;;;;;;;10459175;28;20391;-76
2023/06/15 03:10:41;;;;;;;14.90;9.68;;;;;;;;;;10455051;28;20036;-76
2023/06/15 03:15:41;;;;;;;17.73;9.60;;;;;;;;;;10424471;28;20404;-75
2023/06/15 03:20:43;;;;;;;14.15;8.85;;;;;;;;;;10462398;28;20041;-76
2023/06/15 03:25:44;;;;;;;12.57;8.15;;;;;;;;;;10452068;28;20129;-78
2023/06/15 03:30:46;;;;;;;16.85;8.75;;;;;;;;;;10436963;28;20040;-79
2023/06/15 03:35:48;;;;;;;15.70;7.97;;;;;;;;;;10450122;28;20017;-79
2023/06/15 03:40:49;;;;;;;11.68;7.82;;;;;;;;;;10479681;28;20020;-76
2023/06/15 03:45:51;;;;;;;14.38;8.82;;;;;;;;;;10461724;28;20029;-76
2023/06/15 03:50:51;;;;;;;13.18;8.50;;;;;;;;;;10479239;28;20017;-75
2023/06/15 03:55:51;;;;;;;13.75;8.70;;;;;;;;;;10456014;28;20020;-75
2023/06/15 04:00:52;;;;;;;19.10;12.10;;;;;;;;;;10460382;28;20028;-79
2023/06/15 04:05:53;;;;;;;21.17;11.05;;;;;;;;;;10431908;28;20025;-74
2023/06/15 04:10:53;;;;;;;18.77;11.57;;;;;;;;;;10389563;28;20036;-74
2023/06/15 04:15:53;;;;;;;20.25;12.57;;;;;;;;;;10448958;28;20546;-73
2023/06/15 04:20:55;;;;;;;20.00;12.85;;;;;;;;;;10475657;28;20060;-73
2023/06/15 04:25:58;;;;;;;23.83;14.02;;;;;;;;;;10467331;28;20542;-76
2023/06/15 04:31:07;;;;;;;18.80;11.10;;;;;;;;;;10444585;28;20056;-75
2023/06/15 04:36:12;;;;;;;21.67;12.93;;;;;;;;;;10457408;28;20020;-76
2023/06/15 04:41:12;;;;;;;17.48;11.55;;;;;;;;;;10426012;28;20028;-75
2023/06/15 04:46:12;;;;;;;16.08;11.02;;;;;;;;;;10450011;28;20024;-76
2023/06/15 04:51:13;;;;;;;15.10;10.02;;;;;;;;;;10478474;28;20040;-79
2023/06/15 04:56:13;;;;;;;19.05;11.15;;;;;;;;;;10423155;28;20029;-75
2023/06/15 05:01:14;;;;;;;19.17;10.57;;;;;;;;;;10470885;28;20024;-80
2023/06/15 05:06:14;;;;;;;20.00;11.60;;;;;;;;;;10463292;28;20496;-77
2023/06/15 05:11:15;;;;;;;21.03;12.70;;;;;;;;;;10388893;28;20060;-75
2023/06/15 05:16:15;;;;;;;15.27;10.02;;;;;;;;;;10420171;28;20029;-75
2023/06/15 05:21:15;;;;;;;16.30;10.75;;;;;;;;;;10460552;28;20025;-77
2023/06/15 05:26:16;;;;;;;22.05;9.63;;;;;;;;;;10467241;28;20161;-76
2023/06/15 05:31:16;;;;;;;15.05;9.57;;;;;;;;;;10465209;28;20487;-77
2023/06/15 05:36:16;;;;;;;12.20;8.07;;;;;;;;;;10467487;28;20135;-77
2023/06/15 05:41:17;;;;;;;16.98;9.13;;;;;;;;;;10465132;28;20717;-78
2023/06/15 05:46:17;;;;;;;21.87;10.27;;;;;;;;;;10464675;28;20472;-76
2023/06/15 05:51:17;;;;;;;18.17;10.67;;;;;;;;;;10483241;28;20062;-75
2023/06/15 05:56:18;;;;;;;24.40;11.07;;;;;;;;;;10464007;28;20366;-79
2023/06/15 06:01:18;;;;;;;18.70;11.50;;;;;;;;;;10439739;28;20045;-75
2023/06/15 06:06:18;;;;;;;24.25;10.82;;;;;;;;;;10383612;28;20268;-77
2023/06/15 06:11:19;;;;;;;22.15;11.13;;;;;;;;;;10451816;28;20085;-74
2023/06/15 06:16:20;;;;;;;24.67;11.18;;;;;;;;;;10463018;28;20542;-76
2023/06/15 06:21:20;;;;;;;20.02;11.52;;;;;;;;;;10480536;28;20461;-76
2023/06/15 06:26:21;;;;;;;42.85;14.77;;;;;;;;;;10463366;28;20086;-77
2023/06/15 06:31:21;;;;;;;16.52;11.48;;;;;;;;;;10463655;28;20024;-78
2023/06/15 06:36:21;;;;;;;28.77;11.50;;;;;;;;;;10463156;28;20111;-74
2023/06/15 06:41:22;;;;;;;19.02;10.90;;;;;;;;;;10463618;28;20028;-76
2023/06/15 06:46:22;;;;;;;17.75;10.57;;;;;;;;;;10463312;28;20028;-76
2023/06/15 06:51:24;;;;;;;15.50;10.90;;;;;;;;;;10462922;28;20074;-76
2023/06/15 06:56:26;;;;;;;15.02;10.77;;;;;;;;;;10463439;28;20028;-80
2023/06/15 07:01:26;;;;;;;19.05;11.57;;;;;;;;;;10455757;28;20028;-75
2023/06/15 07:06:26;;;;;;;19.95;10.45;;;;;;;;;;10460884;28;20020;-75
2023/06/15 07:11:27;;;;;;;25.60;13.13;;;;;;;;;;10461679;28;20094;-81
2023/06/15 07:16:27;;;;;;;24.90;11.60;;;;;;;;;;10462481;28;20031;-76
2023/06/15 07:21:29;;;;;;;15.15;10.23;;;;;;;;;;10462204;28;20037;-79
2023/06/15 07:26:30;;;;;;;15.43;9.98;;;;;;;;;;10480012;28;20613;-76
2023/06/15 07:31:30;;;;;;;20.13;10.90;;;;;;;;;;10412651;28;20028;-77
2023/06/15 07:36:30;;;;;;;14.90;10.00;;;;;;;;;;10402504;28;20289;-76
2023/06/15 07:41:30;;;;;;;16.02;10.15;;;;;;;;;;10461684;28;20177;-75
2023/06/15 07:46:34;;;;;;;14.30;10.63;;;;;;;;;;10462944;28;20031;-78
2023/06/15 07:51:36;;;;;;;23.00;12.25;;;;;;;;;;10452690;28;20488;-80
2023/06/15 07:56:36;;;;;;;16.30;10.75;;;;;;;;;;10453707;28;20438;-81
2023/06/15 08:01:37;;;;;;;15.93;10.80;;;;;;;;;;10468862;28;20028;-76
2023/06/15 08:06:37;;;;;;;20.52;10.27;;;;;;;;;;10486258;28;20448;-75
2023/06/15 08:11:37;;;;;;;21.90;10.57;;;;;;;;;;10468738;28;20048;-74
2023/06/15 08:16:38;;;;;;;14.75;10.10;;;;;;;;;;10468504;28;20514;-80
2023/06/15 08:21:41;;;;;;;12.23;9.50;;;;;;;;;;10468316;28;20031;-79
2023/06/15 08:26:42;;;;;;;12.88;8.73;;;;;;;;;;10486934;28;20016;-76
2023/06/15 08:31:42;;;;;;;16.83;10.45;;;;;;;;;;10468948;28;20025;-76
2023/06/15 08:36:45;;;;;;;15.05;8.93;;;;;;;;;;10467651;28;20016;-79
2023/06/15 08:41:47;;;;;;;12.85;9.38;;;;;;;;;;10468698;28;20048;-76
2023/06/15 08:46:47;;;;;;;10.60;8.55;;;;;;;;;;10412157;28;20016;-74
2023/06/15 08:51:47;;;;;;;11.77;8.93;;;;;;;;;;10400549;28;20029;-76
2023/06/15 08:56:48;;;;;;;18.20;10.32;;;;;;;;;;10385857;28;20033;-77
2023/06/15 09:01:51;;;;;;;16.90;10.33;;;;;;;;;;10385347;28;20030;-76
2023/06/15 09:06:51;;;;;;;22.70;12.93;;;;;;;;;;10384289;28;20065;-74
2023/06/15 09:11:52;;;;;;;20.40;10.60;;;;;;;;;;10399999;28;20556;-76
2023/06/15 09:16:52;;;;;;;16.75;12.10;;;;;;;;;;10400630;28;20104;-76
2023/06/15 09:21:53;;;;;;;19.45;10.52;;;;;;;;;;10383904;28;20025;-79
2023/06/15 09:26:54;;;;;;;14.45;11.18;;;;;;;;;;10401706;28;20017;-75
2023/06/15 09:31:54;;;;;;;17.23;10.70;;;;;;;;;;10399649;28;20017;-81
2023/06/15 09:36:55;;;;;;;19.20;11.98;;;;;;;;;;10400488;28;20021;-79
2023/06/15 09:42:02;;;;;;;21.73;14.10;;;;;;;;;;10399436;28;20051;-75
2023/06/15 09:47:03;;;;;;;;;;;;;;;;;;10399669;28;20571;-76
2023/06/15 09:52:04;;;;;;;35.47;19.47;;;;;;;;;;10398831;28;19911;-77
2023/06/15 09:57:04;;;;;;;36.03;21.55;;;;;;;;;;10398313;28;20080;-76
2023/06/15 10:02:10;;;;;;;36.97;22.13;;;;;;;;;;10399080;28;20017;-76
2023/06/15 10:07:11;;;;;;;39.15;22.75;;;;;;;;;;10398591;28;20386;-77
2023/06/15 10:12:13;;;;;;;36.90;21.33;;;;;;;;;;10397448;28;20191;-77
2023/06/15 10:17:15;;;;;;;34.55;21.30;;;;;;;;;;10398089;28;20030;-75
2023/06/15 10:22:17;;;;;;;37.72;19.20;;;;;;;;;;10398301;28;20051;-76
2023/06/15 10:27:19;;;;;;;41.72;22.98;;;;;;;;;;10399705;28;20021;-80
2023/06/15 10:37:30;;;;;;;42.90;23.98;;;;;;;;;;10373062;28;20119;-74
2023/06/15 10:42:41;;;;;;;49.90;26.30;;;;;;;;;;10373571;28;20049;-74
2023/06/15 10:47:48;;;;;;;46.25;24.85;;;;;;;;;;10374218;28;20037;-75
2023/06/15 10:52:50;;;;;;;47.45;25.10;;;;;;;;;;10376169;28;20560;-75
2023/06/15 10:58:09;;;;;;;47.70;24.08;;;;;;;;;;10373005;28;20385;-75
2023/06/15 11:03:24;;;;;;;48.42;26.42;;;;;;;;;;10374414;28;20026;-75
2023/06/15 11:08:26;;;;;;;40.95;23.73;;;;;;;;;;10373740;28;20064;-75
2023/06/15 11:13:26;;;;;;;35.97;21.00;;;;;;;;;;10356401;28;20264;-75
2023/06/15 11:18:26;;;;;;;36.10;23.40;;;;;;;;;;10355613;28;20045;-74
2023/06/15 11:23:34;;;;;;;30.33;17.50;;;;;;;;;;10378427;28;20294;-74
2023/06/15 11:28:34;;;;;;;25.50;15.45;;;;;;;;;;10381813;28;20247;-74
2023/06/15 11:33:36;;;;;;;18.60;11.97;;;;;;;;;;10380811;28;20042;-74
2023/06/15 11:38:37;;;;;;;25.35;15.30;;;;;;;;;;10381229;28;20014;-73
2023/06/15 11:43:40;;;;;;;18.08;12.77;;;;;;;;;;10379559;28;20026;-72
2023/06/15 11:48:40;;;;;;;23.15;15.10;;;;;;;;;;10363484;28;20442;-73
2023/06/15 11:53:45;;;;;;;24.70;14.40;;;;;;;;;;10380468;28;20051;-73
2023/06/15 11:58:47;;;;;;;16.58;11.60;;;;;;;;;;10379930;28;20189;-73
2023/06/15 12:03:50;;;;;;;21.23;14.57;;;;;;;;;;10379733;28;20026;-74
2023/06/15 12:08:52;;;;;;;18.02;13.25;;;;;;;;;;10379390;28;20017;-74
2023/06/15 12:13:52;;;;;;;21.10;13.57;;;;;;;;;;10378816;28;20400;-73
2023/06/15 12:18:53;;;;;;;19.17;12.95;;;;;;;;;;10379392;28;20021;-75
2023/06/15 12:23:56;;;;;;;16.80;11.88;;;;;;;;;;10361761;28;20021;-74
2023/06/15 12:28:56;;;;;;;16.02;11.52;;;;;;;;;;10378152;28;20251;-74
2023/06/15 12:33:57;;;;;;;14.35;10.20;;;;;;;;;;10378066;28;20050;-74
2023/06/15 12:38:57;;;;;;;15.88;10.48;;;;;;;;;;10378176;28;20014;-74
2023/06/15 12:43:57;;;;;;;19.13;10.88;;;;;;;;;;10378517;28;20014;-74
2023/06/15 12:48:58;;;;;;;15.35;10.90;;;;;;;;;;10378191;28;20017;-74
2023/06/15 12:53:58;;;;;;;15.10;10.17;;;;;;;;;;10378338;28;20090;-74
2023/06/15 12:58:58;;;;;;;20.25;11.43;;;;;;;;;;10377731;28;20072;-74
2023/06/15 13:03:59;;;;;;;16.02;10.13;;;;;;;;;;10377291;28;20017;-74
2023/06/15 13:08:59;;;;;;;15.33;10.67;;;;;;;;;;10377230;28;20032;-73
2023/06/15 13:13:59;;;;;;;17.35;11.00;;;;;;;;;;10377550;28;20021;-74
2023/06/15 13:19:00;;;;;;;15.80;11.40;;;;;;;;;;10377147;28;20013;-74
2023/06/15 13:24:00;;;;;;;15.70;10.37;;;;;;;;;;10359293;28;20350;-73
2023/06/15 13:29:00;;;;;;;16.08;10.55;;;;;;;;;;10375853;28;20017;-74
2023/06/15 13:34:00;;;;;;;17.97;10.77;;;;;;;;;;10376005;28;20423;-74
2023/06/15 13:39:01;;;;;;;17.25;10.77;;;;;;;;;;10376375;28;20024;-74
2023/06/15 13:44:01;;;;;;;12.38;8.88;;;;;;;;;;10376470;28;20022;-74
2023/06/15 13:49:02;;;;;;;12.25;7.90;;;;;;;;;;10375984;28;20046;-74
2023/06/15 13:54:03;;;;;;;13.70;8.17;;;;;;;;;;10375587;28;20199;-74
2023/06/15 13:59:04;;;;;;;9.82;7.40;;;;;;;;;;10375621;28;20401;-74
2023/06/15 14:04:05;;;;;;;13.20;8.65;;;;;;;;;;10375908;28;20010;-74
2023/06/15 14:09:05;;;;;;;13.25;8.95;;;;;;;;;;10375196;28;20018;-74
2023/06/15 14:14:05;;;;;;;13.35;8.90;;;;;;;;;;10375068;28;20060;-74
2023/06/15 14:19:06;;;;;;;12.95;8.60;;;;;;;;;;10373999;28;20022;-73
2023/06/15 14:24:06;;;;;;;12.95;9.70;;;;;;;;;;10334397;28;20022;-74
2023/06/15 14:29:09;;;;;;;15.43;10.05;;;;;;;;;;10365562;28;20140;-73
2023/06/15 14:34:14;;;;;;;12.43;10.07;;;;;;;;;;10374490;28;20184;-73
2023/06/15 14:39:15;;;;;;;12.85;9.10;;;;;;;;;;10374167;28;20017;-73
2023/06/15 14:44:15;;;;;;;17.48;9.57;;;;;;;;;;10373313;28;20042;-73
2023/06/15 14:49:16;;;;;;;19.77;10.82;;;;;;;;;;10373501;28;20486;-73
2023/06/15 14:54:16;;;;;;;18.25;11.90;;;;;;;;;;10373553;28;20021;-73
2023/06/15 14:59:16;;;;;;;18.57;10.63;;;;;;;;;;10333590;28;20030;-73
2023/06/15 15:04:20;;;;;;;18.33;11.80;;;;;;;;;;10363262;28;20304;-73
2023/06/15 15:09:20;;;;;;;19.50;12.68;;;;;;;;;;10373081;28;20018;-73
2023/06/15 15:14:20;;;;;;;22.23;13.10;;;;;;;;;;10373132;28;20025;-73
2023/06/15 15:19:20;;;;;;;24.27;14.93;;;;;;;;;;10373250;28;20022;-73
2023/06/15 15:24:21;;;;;;;32.65;18.45;;;;;;;;;;10373174;28;20335;-73
2023/06/15 15:29:21;;;;;;;34.30;20.47;;;;;;;;;;10372974;28;20030;-73
2023/06/15 15:34:22;;;;;;;44.13;22.63;;;;;;;;;;10372839;28;20227;-73
2023/06/15 15:39:22;;;;;;;38.60;21.90;;;;;;;;;;10372562;28;20357;-73
2023/06/15 15:44:22;;;;;;;40.00;22.95;;;;;;;;;;10372892;28;20594;-73
2023/06/15 15:49:22;;;;;;;42.30;22.63;;;;;;;;;;10372544;28;20014;-73
2023/06/15 15:54:23;;;;;;;45.25;24.63;;;;;;;;;;10373013;28;20732;-73
2023/06/15 15:59:23;;;;;;;48.47;23.83;;;;;;;;;;10372673;28;20025;-72
2023/06/15 16:04:23;;;;;;;43.22;23.58;;;;;;;;;;10364742;28;20025;-78
2023/06/15 16:09:24;;;;;;;35.17;21.47;;;;;;;;;;10370903;28;20061;-73
2023/06/15 16:14:24;;;;;;;41.63;22.60;;;;;;;;;;10373966;28;20343;-72
2023/06/15 16:19:24;;;;;;;36.63;19.85;;;;;;;;;;10371627;28;20048;-68
2023/06/15 16:24:25;;;;;;;31.52;19.85;;;;;;;;;;10373151;28;20064;-69
2023/06/15 16:29:25;;;;;;;31.07;19.27;;;;;;;;;;10373401;28;20013;-68
2023/06/15 16:34:25;;;;;;;32.67;19.27;;;;;;;;;;10373002;28;20066;-73
2023/06/15 16:39:46;;;;;;;40.50;22.77;;;;;;;;;;10372636;28;20041;-72
2023/06/15 16:44:47;;;;;;;36.00;21.55;;;;;;;;;;10356084;28;20582;-74
2023/06/15 16:49:48;;;;;;;42.72;23.05;;;;;;;;;;10373046;28;20018;-72
2023/06/15 16:54:49;;;;;;;32.45;20.05;;;;;;;;;;10371091;28;20076;-77
2023/06/15 16:59:49;;;;;;;34.05;20.38;;;;;;;;;;10373085;28;20200;-77
2023/06/15 17:04:52;;;;;;;30.40;15.38;;;;;;;;;;10353950;28;20014;-76
2023/06/15 17:09:53;;;;;;;24.85;15.70;;;;;;;;;;10371665;28;20013;-79
2023/06/15 17:14:53;;;;;;;26.20;15.40;;;;;;;;;;10372020;28;20232;-76
2023/06/15 17:19:53;;;;;;;25.23;15.02;;;;;;;;;;10370897;28;20025;-77
2023/06/15 17:24:53;;;;;;;25.50;15.27;;;;;;;;;;10371633;28;20017;-77
2023/06/15 17:30:00;;;;;;;22.27;13.45;;;;;;;;;;10370688;28;20197;-81
2023/06/15 17:35:01;;;;;;;21.60;10.60;;;;;;;;;;10373263;28;20406;-81
2023/06/15 17:40:02;;;;;;;18.80;10.80;;;;;;;;;;10369296;28;20029;-80
2023/06/15 17:45:03;;;;;;;20.40;11.68;;;;;;;;;;10368497;28;20101;-80
2023/06/15 17:50:04;;;;;;;21.48;13.02;;;;;;;;;;10369516;28;20312;-73
2023/06/15 17:55:05;;;;;;;19.67;12.77;;;;;;;;;;10370136;28;20033;-73
2023/06/15 18:00:06;;;;;;;21.98;13.25;;;;;;;;;;10370111;28;20040;-72
2023/06/15 18:05:07;;;;;;;17.33;10.77;;;;;;;;;;10378902;28;20342;-75
2023/06/15 18:10:07;;;;;;;19.07;11.63;;;;;;;;;;10369856;28;20010;-75
2023/06/15 18:15:08;;;;;;;30.75;13.23;;;;;;;;;;10370119;28;20017;-78
2023/06/15 18:20:09;;;;;;;17.60;11.27;;;;;;;;;;10369577;28;20571;-74
2023/06/15 18:25:09;;;;;;;16.20;11.88;;;;;;;;;;10369257;28;20252;-76
2023/06/15 18:30:10;;;;;;;18.20;11.73;;;;;;;;;;10370236;28;20248;-73
2023/06/15 18:35:10;;;;;;;26.30;12.00;;;;;;;;;;10371200;28;20052;-77
2023/06/15 18:40:10;;;;;;;18.85;11.90;;;;;;;;;;10372563;28;20393;-75
2023/06/15 18:45:11;;;;;;;21.00;13.07;;;;;;;;;;10355138;28;20100;-75
2023/06/15 18:50:12;;;;;;;20.40;12.05;;;;;;;;;;10366833;28;20287;-75
2023/06/15 18:55:12;;;;;;;22.88;12.68;;;;;;;;;;10366469;28;20327;-75
2023/06/15 19:00:13;;;;;;;22.03;12.13;;;;;;;;;;10363985;28;20235;-75
2023/06/15 19:05:14;;;;;;;19.73;12.23;;;;;;;;;;10366471;28;20240;-72
2023/06/15 19:10:15;;;;;;;13.82;9.52;;;;;;;;;;10367746;28;20018;-71
2023/06/15 19:15:15;;;;;;;16.88;12.05;;;;;;;;;;10352570;28;20022;-71
2023/06/15 19:20:16;;;;;;;22.85;13.13;;;;;;;;;;10363441;28;20076;-72
2023/06/15 19:25:16;;;;;;;20.10;12.38;;;;;;;;;;10367238;28;20064;-70
2023/06/15 19:30:16;;;;;;;29.52;14.07;;;;;;;;;;10364932;28;20081;-72
2023/06/15 19:35:16;;;;;;;27.45;14.85;;;;;;;;;;10363198;28;20220;-72
2023/06/15 19:40:17;;;;;;;31.20;16.97;;;;;;;;;;10363923;28;20025;-71
2023/06/15 19:45:17;;;;;;;27.27;15.50;;;;;;;;;;10371668;28;20264;-72
2023/06/15 19:50:17;;;;;;;31.33;17.98;;;;;;;;;;10373189;28;20030;-72
2023/06/15 19:55:17;;;;;;;48.75;26.70;;;;;;;;;;10374578;28;20010;-72
2023/06/15 20:00:18;;;;;;;50.30;25.67;;;;;;;;;;10374046;28;20193;-76
2023/06/15 20:05:18;;;;;;;45.73;23.43;;;;;;;;;;10374156;28;20353;-76
2023/06/15 20:10:19;;;;;;;43.20;22.90;;;;;;;;;;10373610;28;20094;-73
2023/06/15 20:15:20;;;;;;;43.95;23.02;;;;;;;;;;10374469;28;20026;-77
2023/06/15 20:20:20;;;;;;;45.60;22.73;;;;;;;;;;10356556;28;20088;-74
2023/06/15 20:25:20;;;;;;;39.53;21.27;;;;;;;;;;10372907;28;20388;-74
2023/06/15 20:30:20;;;;;;;28.83;16.15;;;;;;;;;;10373596;28;20053;-71
2023/06/15 20:35:21;;;;;;;21.33;11.98;;;;;;;;;;10372548;28;20049;-67
2023/06/15 20:40:21;;;;;;;21.15;10.68;;;;;;;;;;10355248;28;20045;-68
2023/06/15 20:45:21;;;;;;;16.83;9.60;;;;;;;;;;10372531;28;20041;-71
2023/06/15 20:50:21;;;;;;;12.77;7.40;;;;;;;;;;10371878;28;20303;-71
2023/06/15 20:55:22;;;;;;;17.75;8.15;;;;;;;;;;10354191;28;20025;-71
2023/06/15 21:00:22;;;;;;;17.17;7.85;;;;;;;;;;10371703;28;20022;-75
2023/06/15 21:05:23;;;;;;;16.08;8.90;;;;;;;;;;10371909;28;20032;-74
2023/06/15 21:10:23;;;;;;;16.80;9.27;;;;;;;;;;10375459;28;20201;-72
2023/06/15 21:15:23;;;;;;;16.87;9.43;;;;;;;;;;10373670;28;20021;-72
2023/06/15 21:20:23;;;;;;;13.00;8.18;;;;;;;;;;10374528;28;20243;-72
2023/06/15 21:25:24;;;;;;;20.00;9.50;;;;;;;;;;10375339;28;20030;-72
2023/06/15 21:30:24;;;;;;;18.80;8.43;;;;;;;;;;10356011;28;20415;-73
2023/06/15 21:35:25;;;;;;;16.38;9.73;;;;;;;;;;10373115;28;20391;-73
2023/06/15 21:40:25;;;;;;;17.23;9.15;;;;;;;;;;10370880;28;20037;-73
2023/06/15 21:45:25;;;;;;;16.00;8.77;;;;;;;;;;10373843;28;20026;-73
2023/06/15 21:50:26;;;;;;;11.93;8.13;;;;;;;;;;10375266;28;20021;-73
2023/06/15 21:55:27;;;;;;;12.90;8.43;;;;;;;;;;10375532;28;20026;-73
2023/06/15 22:00:28;;;;;;;16.38;9.55;;;;;;;;;;10375199;28;20315;-73
2023/06/15 22:05:28;;;;;;;15.77;10.63;;;;;;;;;;10373993;28;20044;-73
2023/06/15 22:10:28;;;;;;;20.00;11.57;;;;;;;;;;10374594;28;20036;-73
2023/06/15 22:15:29;;;;;;;19.95;11.77;;;;;;;;;;10374723;28;20021;-73
2023/06/15 22:20:29;;;;;;;20.57;10.87;;;;;;;;;;10374236;28;20044;-73
2023/06/15 22:25:30;;;;;;;20.25;11.73;;;;;;;;;;10373989;28;20300;-73
2023/06/15 22:30:30;;;;;;;23.52;10.95;;;;;;;;;;10374028;28;20068;-73
2023/06/15 22:35:30;;;;;;;20.47;11.50;;;;;;;;;;10373686;28;20050;-73
2023/06/15 22:40:32;;;;;;;24.67;14.45;;;;;;;;;;10373786;28;20258;-73
2023/06/15 22:45:32;;;;;;;28.90;14.00;;;;;;;;;;10373843;28;20021;-73
2023/06/15 22:50:33;;;;;;;28.17;12.93;;;;;;;;;;10373711;28;20203;-73
2023/06/15 22:55:33;;;;;;;23.53;12.40;;;;;;;;;;10373367;28;20029;-72
2023/06/15 23:00:33;;;;;;;29.98;13.77;;;;;;;;;;10373021;28;20052;-73
2023/06/15 23:05:35;;;;;;;24.48;12.25;;;;;;;;;;10374109;28;20168;-72
2023/06/15 23:10:36;;;;;;;23.90;12.82;;;;;;;;;;10373166;28;20022;-72
2023/06/15 23:15:36;;;;;;;29.75;14.90;;;;;;;;;;10371376;28;20254;-72
2023/06/15 23:20:40;;;;;;;27.90;14.40;;;;;;;;;;10380490;28;20025;-72
2023/06/15 23:25:40;;;;;;;30.88;15.43;;;;;;;;;;10380746;28;20066;-72
2023/06/15 23:30:40;;;;;;;28.77;15.63;;;;;;;;;;10376328;28;20107;-73
2023/06/15 23:35:41;;;;;;;28.88;15.27;;;;;;;;;;10381646;28;20117;-72
2023/06/15 23:40:41;;;;;;;30.45;15.18;;;;;;;;;;10380186;28;20026;-72
2023/06/15 23:45:41;;;;;;;28.35;13.82;;;;;;;;;;10380217;28;20089;-72
2023/06/15 23:50:41;;;;;;;32.03;14.88;;;;;;;;;;10380038;28;20037;-72
2023/06/15 23:55:42;;;;;;;31.35;16.65;;;;;;;;;;10379256;28;20017;-72
